createdAt,value
2022-12-04T00:01:16.874Z,101149.00
2022-12-04T00:03:43.492Z,101145.00
2022-12-04T00:06:12.622Z,101147.00
2022-12-04T00:08:39.937Z,101147.00
2022-12-04T00:11:07.961Z,101151.00
2022-12-04T00:13:35.247Z,101137.00
2022-12-04T00:16:04.495Z,101148.00
2022-12-04T00:18:31.358Z,101155.00
2022-12-04T00:20:57.854Z,101163.00
2022-12-04T00:23:24.432Z,101150.00
2022-12-04T00:25:53.233Z,101147.00
2022-12-04T00:28:19.808Z,101153.00
2022-12-04T00:30:46.876Z,101145.00
2022-12-04T00:33:13.731Z,101143.00
2022-12-04T00:35:40.720Z,101142.00
2022-12-04T00:38:07.300Z,101140.00
2022-12-04T00:40:34.055Z,101147.00
2022-12-04T00:43:00.700Z,101138.00
2022-12-04T00:45:27.368Z,101144.00
2022-12-04T00:48:18.916Z,101149.00
2022-12-04T00:50:45.786Z,101141.00
2022-12-04T00:53:12.993Z,101134.00
2022-12-04T00:55:40.765Z,101141.00
2022-12-04T00:58:07.819Z,101140.00
2022-12-04T01:00:38.343Z,101133.00
2022-12-04T01:03:07.510Z,101125.00
2022-12-04T01:05:44.167Z,101135.00
2022-12-04T01:08:11.856Z,101142.00
2022-12-04T01:10:39.750Z,101139.00
2022-12-04T01:13:06.370Z,101146.00
2022-12-04T01:15:33.084Z,101142.00
2022-12-04T01:17:59.877Z,101144.00
2022-12-04T01:20:26.415Z,101144.00
2022-12-04T01:22:52.949Z,101148.00
2022-12-04T01:25:19.459Z,101150.00
2022-12-04T01:27:46.121Z,101143.00
2022-12-04T01:30:13.159Z,101151.00
2022-12-04T01:32:39.726Z,101142.00
2022-12-04T01:35:06.728Z,101137.00
2022-12-04T01:37:33.616Z,101133.00
2022-12-04T01:40:00.375Z,101124.00
2022-12-04T01:42:27.421Z,101124.00
2022-12-04T01:45:30.981Z,101127.00
2022-12-04T01:48:09.459Z,101115.00
2022-12-04T01:50:36.251Z,101117.00
2022-12-04T01:53:02.931Z,101138.00
2022-12-04T01:55:30.692Z,101116.00
2022-12-04T01:57:58.021Z,101127.00
2022-12-04T02:00:24.678Z,101122.00
2022-12-04T02:02:51.371Z,101114.00
2022-12-04T02:05:19.938Z,101125.00
2022-12-04T02:07:48.749Z,101117.00
2022-12-04T02:10:17.135Z,101118.00
2022-12-04T02:12:54.731Z,101120.00
2022-12-04T02:16:03.260Z,101111.00
2022-12-04T02:18:46.406Z,101107.00
2022-12-04T02:21:33.813Z,101095.00
2022-12-04T02:24:31.479Z,101101.00
2022-12-04T02:27:09.063Z,101093.00
2022-12-04T02:29:55.895Z,101093.00
2022-12-04T02:32:28.926Z,101083.00
2022-12-04T02:35:13.322Z,101093.00
2022-12-04T02:37:44.321Z,101087.00
2022-12-04T02:40:20.274Z,101093.00
2022-12-04T02:42:55.823Z,101090.00
2022-12-04T02:45:26.915Z,101089.00
2022-12-04T02:47:54.659Z,101087.00
2022-12-04T02:50:22.269Z,101079.00
2022-12-04T02:53:03.803Z,101068.00
2022-12-04T02:55:42.850Z,101063.00
2022-12-04T02:58:16.617Z,101056.00
2022-12-04T03:00:45.468Z,101066.00
2022-12-04T03:03:18.278Z,101071.00
2022-12-04T03:05:54.823Z,101062.00
2022-12-04T03:08:33.059Z,101055.00
2022-12-04T03:11:00.891Z,101056.00
2022-12-04T03:13:38.623Z,101062.00
2022-12-04T03:16:12.143Z,101066.00
2022-12-04T03:18:44.050Z,101065.00
2022-12-04T03:21:14.965Z,101058.00
2022-12-04T03:23:46.336Z,101062.00
2022-12-04T03:26:17.733Z,101067.00
2022-12-04T03:28:49.282Z,101064.00
2022-12-04T03:31:19.455Z,101056.00
2022-12-04T03:33:47.409Z,101052.00
2022-12-04T03:36:25.862Z,101053.00
2022-12-04T03:38:52.314Z,101065.00
2022-12-04T03:41:22.045Z,101060.00
2022-12-04T03:44:18.240Z,101058.00
2022-12-04T03:46:50.663Z,101059.00
2022-12-04T03:49:23.167Z,101065.00
2022-12-04T03:52:01.908Z,101052.00
2022-12-04T03:54:43.304Z,101058.00
2022-12-04T03:57:15.952Z,101074.00
2022-12-04T03:59:55.882Z,101071.00
2022-12-04T04:02:24.891Z,101073.00
2022-12-04T04:04:53.354Z,101051.00
2022-12-04T04:07:34.829Z,101048.00
2022-12-04T04:10:06.506Z,101046.00
2022-12-04T04:12:38.246Z,101053.00
2022-12-04T04:15:31.021Z,101050.00
2022-12-04T04:18:16.796Z,101059.00
2022-12-04T04:21:22.029Z,101049.00
2022-12-04T04:24:09.136Z,101055.00
2022-12-04T04:26:38.268Z,101036.00
2022-12-04T04:29:04.839Z,101048.00
2022-12-04T04:31:48.179Z,101050.00
2022-12-04T04:34:44.090Z,101047.00
2022-12-04T04:37:27.534Z,101043.00
2022-12-04T04:40:19.525Z,101047.00
2022-12-04T04:43:04.803Z,101044.00
2022-12-04T04:45:43.685Z,101039.00
2022-12-04T04:48:15.040Z,101045.00
2022-12-04T04:50:42.275Z,101034.00
2022-12-04T04:53:21.477Z,101026.00
2022-12-04T04:55:48.545Z,101036.00
2022-12-04T04:58:18.251Z,101048.00
2022-12-04T05:00:58.542Z,101037.00
2022-12-04T05:03:25.902Z,101038.00
2022-12-04T05:05:52.573Z,101042.00
2022-12-04T05:08:19.195Z,101043.00
2022-12-04T05:10:45.907Z,101049.00
2022-12-04T05:13:13.477Z,101052.00
2022-12-04T05:15:40.587Z,101056.00
2022-12-04T05:18:07.354Z,101055.00
2022-12-04T05:20:34.350Z,101051.00
2022-12-04T05:23:00.946Z,101057.00
2022-12-04T05:25:28.112Z,101055.00
2022-12-04T05:27:54.696Z,101045.00
2022-12-04T05:30:21.411Z,101039.00
2022-12-04T05:32:48.042Z,101051.00
2022-12-04T05:35:14.762Z,101044.00
2022-12-04T05:37:41.383Z,101043.00
2022-12-04T05:40:09.052Z,101048.00
2022-12-04T05:42:35.579Z,101049.00
2022-12-04T05:45:02.132Z,101055.00
2022-12-04T05:47:28.937Z,101035.00
2022-12-04T05:49:55.721Z,101047.00
2022-12-04T05:52:22.497Z,101057.00
2022-12-04T05:54:52.085Z,101041.00
2022-12-04T05:57:23.179Z,101041.00
2022-12-04T05:59:51.993Z,101042.00
2022-12-04T06:02:18.653Z,101044.00
2022-12-04T06:04:45.257Z,101049.00
2022-12-04T06:07:11.909Z,101043.00
2022-12-04T06:09:38.444Z,101042.00
2022-12-04T06:12:05.593Z,101036.00
2022-12-04T06:14:37.728Z,101037.00
2022-12-04T06:17:06.025Z,101037.00
2022-12-04T06:19:32.591Z,101048.00
2022-12-04T06:21:59.107Z,101052.00
2022-12-04T06:24:25.669Z,101045.00
2022-12-04T06:27:27.384Z,101044.00
2022-12-04T06:29:43.165Z,101033.00
2022-12-04T06:32:09.918Z,101042.00
2022-12-04T06:34:36.987Z,101033.00
2022-12-04T06:37:03.620Z,101039.00
2022-12-04T06:39:33.253Z,101043.00
2022-12-04T06:41:59.820Z,101039.00
2022-12-04T06:44:26.607Z,101032.00
2022-12-04T06:46:54.780Z,101037.00
2022-12-04T06:49:22.843Z,101044.00
2022-12-04T06:51:49.392Z,101031.00
2022-12-04T06:54:15.904Z,101036.00
2022-12-04T06:56:42.482Z,101032.00
2022-12-04T06:59:10.338Z,101040.00
2022-12-04T07:01:36.890Z,101027.00
2022-12-04T07:04:04.260Z,101043.00
2022-12-04T07:06:34.346Z,101039.00
2022-12-04T07:09:12.727Z,101047.00
2022-12-04T07:11:40.221Z,101045.00
2022-12-04T07:14:06.989Z,101044.00
2022-12-04T07:16:38.649Z,101038.00
2022-12-04T07:19:07.411Z,101040.00
2022-12-04T07:21:34.628Z,101037.00
2022-12-04T07:24:01.631Z,101037.00
2022-12-04T07:26:29.519Z,101032.00
2022-12-04T07:28:56.979Z,101033.00
2022-12-04T07:31:24.819Z,101034.00
2022-12-04T07:33:53.380Z,101032.00
2022-12-04T07:36:20.470Z,101046.00
2022-12-04T07:38:47.241Z,101039.00
2022-12-04T07:41:14.338Z,101036.00
2022-12-04T07:43:41.584Z,101035.00
2022-12-04T07:46:14.012Z,101041.00
2022-12-04T07:48:41.077Z,101036.00
2022-12-04T07:51:15.877Z,101036.00
2022-12-04T07:53:42.931Z,101055.00
2022-12-04T07:56:10.713Z,101054.00
2022-12-04T07:58:37.228Z,101060.00
2022-12-04T08:01:06.696Z,101070.00
2022-12-04T08:03:33.435Z,101056.00
2022-12-04T08:06:01.562Z,101060.00
2022-12-04T08:08:28.190Z,101064.00
2022-12-04T08:10:54.701Z,101058.00
2022-12-04T08:13:21.404Z,101056.00
2022-12-04T08:15:48.099Z,101056.00
2022-12-04T08:18:14.649Z,101054.00
2022-12-04T08:20:41.256Z,101061.00
2022-12-04T08:23:07.870Z,101066.00
2022-12-04T08:25:34.394Z,101071.00
2022-12-04T08:28:00.885Z,101071.00
2022-12-04T08:30:27.377Z,101061.00
2022-12-04T08:32:53.888Z,101062.00
2022-12-04T08:35:20.337Z,101061.00
2022-12-04T08:37:49.645Z,101051.00
2022-12-04T08:40:16.238Z,101050.00
2022-12-04T08:42:42.788Z,101075.00
2022-12-04T08:45:09.974Z,101066.00
2022-12-04T08:47:36.560Z,101083.00
2022-12-04T08:50:03.201Z,101063.00
2022-12-04T08:52:29.794Z,101073.00
2022-12-04T08:54:56.277Z,101073.00
2022-12-04T08:57:22.861Z,101061.00
2022-12-04T08:59:49.419Z,101062.00
2022-12-04T09:02:16.653Z,101047.00
2022-12-04T09:04:43.237Z,101060.00
2022-12-04T09:07:09.834Z,101068.00
2022-12-04T09:09:36.444Z,101056.00
2022-12-04T09:12:03.071Z,101051.00
2022-12-04T09:14:29.607Z,101063.00
2022-12-04T09:16:56.138Z,101072.00
2022-12-04T09:19:23.167Z,101069.00
2022-12-04T09:21:49.843Z,101058.00
2022-12-04T09:24:16.435Z,101066.00
2022-12-04T09:26:43.037Z,101072.00
2022-12-04T09:29:10.530Z,101063.00
2022-12-04T09:31:37.330Z,101079.00
2022-12-04T09:34:03.916Z,101071.00
2022-12-04T09:36:30.463Z,101067.00
2022-12-04T09:38:57.669Z,101049.00
2022-12-04T09:41:36.260Z,101048.00
2022-12-04T09:44:22.216Z,101058.00
2022-12-04T09:46:52.505Z,101057.00
2022-12-04T09:49:27.841Z,101050.00
2022-12-04T09:51:56.751Z,101044.00
2022-12-04T09:54:27.300Z,101039.00
2022-12-04T09:56:59.163Z,101037.00
2022-12-04T09:59:28.047Z,101034.00
2022-12-04T10:02:13.077Z,101027.00
2022-12-04T10:04:39.581Z,101027.00
2022-12-04T10:07:18.303Z,101027.00
2022-12-04T10:10:15.623Z,101031.00
2022-12-04T10:13:06.439Z,101029.00
2022-12-04T10:15:55.310Z,101035.00
2022-12-04T10:18:42.958Z,101036.00
2022-12-04T10:21:23.943Z,101035.00
2022-12-04T10:24:02.917Z,101039.00
2022-12-04T10:26:34.968Z,101030.00
2022-12-04T10:29:04.111Z,101019.00
2022-12-04T10:31:31.416Z,101008.00
2022-12-04T10:34:25.767Z,101004.00
2022-12-04T10:36:55.336Z,100999.00
2022-12-04T10:39:26.038Z,100996.00
2022-12-04T10:41:54.858Z,100998.00
2022-12-04T10:44:21.493Z,101007.00
2022-12-04T10:46:49.284Z,101004.00
2022-12-04T10:49:30.458Z,100995.00
2022-12-04T10:51:57.124Z,100995.00
2022-12-04T10:54:32.947Z,100995.00
2022-12-04T10:57:05.331Z,100974.00
2022-12-04T10:59:32.219Z,100980.00
2022-12-04T11:02:27.263Z,100976.00
2022-12-04T11:05:02.922Z,100974.00
2022-12-04T11:07:32.415Z,100987.00
2022-12-04T11:10:29.417Z,100980.00
2022-12-04T11:12:57.889Z,100977.00
2022-12-04T11:15:24.685Z,100987.00
2022-12-04T11:17:52.608Z,100977.00
2022-12-04T11:20:24.712Z,100982.00
2022-12-04T11:22:59.499Z,100983.00
2022-12-04T11:25:28.412Z,100981.00
2022-12-04T11:27:58.473Z,100972.00
2022-12-04T11:30:35.503Z,100964.00
2022-12-04T11:33:03.452Z,100972.00
2022-12-04T11:35:30.194Z,100981.00
2022-12-04T11:38:07.816Z,100982.00
2022-12-04T11:40:34.492Z,100973.00
2022-12-04T11:43:05.347Z,100969.00
2022-12-04T11:45:32.459Z,100981.00
2022-12-04T11:48:02.137Z,100977.00
2022-12-04T11:50:37.783Z,100973.00
2022-12-04T11:53:12.592Z,100961.00
2022-12-04T11:56:00.438Z,100957.00
2022-12-04T11:58:46.497Z,100954.00
2022-12-04T12:01:25.106Z,100954.00
2022-12-04T12:04:22.812Z,100957.00
2022-12-04T12:07:16.584Z,100958.00
2022-12-04T12:09:55.665Z,100958.00
2022-12-04T12:12:41.180Z,100969.00
2022-12-04T12:15:23.373Z,100959.00
2022-12-04T12:17:59.648Z,100954.00
2022-12-04T12:20:42.667Z,100962.00
2022-12-04T12:23:22.136Z,100953.00
2022-12-04T12:26:12.671Z,100959.00
2022-12-04T12:29:05.729Z,100949.00
2022-12-04T12:31:47.643Z,100951.00
2022-12-04T12:34:27.032Z,100941.00
2022-12-04T12:37:00.552Z,100945.00
2022-12-04T12:39:39.913Z,100950.00
2022-12-04T12:42:09.538Z,100948.00
2022-12-04T12:44:54.435Z,100952.00
2022-12-04T12:47:24.143Z,100951.00
2022-12-04T12:50:15.512Z,100944.00
2022-12-04T12:52:52.973Z,100947.00
2022-12-04T12:55:33.914Z,100941.00
2022-12-04T12:58:09.522Z,100949.00
2022-12-04T13:00:43.791Z,100956.00
2022-12-04T13:03:55.959Z,100952.00
2022-12-04T13:06:46.654Z,100955.00
2022-12-04T13:09:31.515Z,100962.00
2022-12-04T13:12:25.568Z,100947.00
2022-12-04T13:14:56.926Z,100945.00
2022-12-04T13:17:34.206Z,100946.00
2022-12-04T13:20:09.648Z,100943.00
2022-12-04T13:23:01.293Z,100936.00
2022-12-04T13:25:57.331Z,100949.00
2022-12-04T13:28:41.241Z,100942.00
2022-12-04T13:31:53.746Z,100936.00
2022-12-04T13:34:38.255Z,100933.00
2022-12-04T13:37:46.920Z,100919.00
2022-12-04T13:40:27.086Z,100912.00
2022-12-04T13:43:05.408Z,100902.00
2022-12-04T13:45:34.589Z,100900.00
2022-12-04T13:48:05.339Z,100901.00
2022-12-04T13:50:37.383Z,100899.00
2022-12-04T13:53:37.576Z,100896.00
2022-12-04T13:56:09.423Z,100896.00
2022-12-04T13:58:37.534Z,100905.00
2022-12-04T14:01:22.360Z,100899.00
2022-12-04T14:03:51.079Z,100893.00
2022-12-04T14:06:23.931Z,100903.00
2022-12-04T14:09:05.057Z,100893.00
2022-12-04T14:11:45.365Z,100905.00
2022-12-04T14:14:26.989Z,100896.00
2022-12-04T14:16:55.459Z,100899.00
2022-12-04T14:19:30.696Z,100902.00
2022-12-04T14:21:57.353Z,100905.00
2022-12-04T14:24:35.357Z,100910.00
2022-12-04T14:27:21.812Z,100910.00
2022-12-04T14:29:52.895Z,100910.00
2022-12-04T14:32:22.466Z,100906.00
2022-12-04T14:34:49.413Z,100904.00
2022-12-04T14:37:22.894Z,100904.00
2022-12-04T14:39:50.137Z,100905.00
2022-12-04T14:42:23.704Z,100905.00
2022-12-04T14:44:58.951Z,100906.00
2022-12-04T14:47:43.889Z,100902.00
2022-12-04T14:50:20.652Z,100909.00
2022-12-04T14:53:09.557Z,100909.00
2022-12-04T14:55:44.877Z,100892.00
2022-12-04T14:58:35.449Z,100892.00
2022-12-04T15:01:05.150Z,100892.00
2022-12-04T15:03:36.916Z,100900.00
2022-12-04T15:06:08.986Z,100895.00
2022-12-04T15:08:35.708Z,100898.00
2022-12-04T15:11:25.054Z,100897.00
2022-12-04T15:13:51.525Z,100883.00
2022-12-04T15:16:21.228Z,100898.00
2022-12-04T15:18:58.662Z,100889.00
2022-12-04T15:21:33.208Z,100901.00
2022-12-04T15:23:59.771Z,100902.00
2022-12-04T15:26:26.946Z,100906.00
2022-12-04T15:28:54.725Z,100903.00
2022-12-04T15:31:35.941Z,100904.00
2022-12-04T15:34:09.703Z,100901.00
2022-12-04T15:36:50.197Z,100921.00
2022-12-04T15:39:20.872Z,100911.00
2022-12-04T15:41:47.914Z,100902.00
2022-12-04T15:44:22.106Z,100904.00
2022-12-04T15:46:48.704Z,100899.00
2022-12-04T15:49:20.342Z,100894.00
2022-12-04T15:51:47.771Z,100896.00
2022-12-04T15:54:24.789Z,100894.00
2022-12-04T15:56:58.915Z,100901.00
2022-12-04T15:59:27.516Z,100892.00
2022-12-04T16:01:54.518Z,100900.00
2022-12-04T16:04:23.113Z,100892.00
2022-12-04T16:06:51.558Z,100903.00
2022-12-04T16:09:21.779Z,100897.00
2022-12-04T16:11:57.776Z,100900.00
2022-12-04T16:14:24.371Z,100896.00
2022-12-04T16:16:52.762Z,100908.00
2022-12-04T16:19:34.055Z,100892.00
2022-12-04T16:22:05.119Z,100911.00
2022-12-04T16:24:31.730Z,100908.00
2022-12-04T16:26:59.957Z,100905.00
2022-12-04T16:29:26.481Z,100918.00
2022-12-04T16:31:57.060Z,100900.00
2022-12-04T16:34:27.843Z,100905.00
2022-12-04T16:36:54.356Z,100898.00
2022-12-04T16:39:20.862Z,100900.00
2022-12-04T16:41:47.393Z,100910.00
2022-12-04T16:44:16.951Z,100894.00
2022-12-04T16:46:43.864Z,100908.00
2022-12-04T16:49:12.446Z,100906.00
2022-12-04T16:51:43.034Z,100896.00
2022-12-04T16:54:11.083Z,100893.00
2022-12-04T16:56:37.606Z,100896.00
2022-12-04T16:59:08.938Z,100885.00
2022-12-04T17:01:42.809Z,100883.00
2022-12-04T17:04:10.331Z,100885.00
2022-12-04T17:06:36.949Z,100889.00
2022-12-04T17:09:04.470Z,100889.00
2022-12-04T17:11:31.121Z,100887.00
2022-12-04T17:13:57.668Z,100882.00
2022-12-04T17:16:28.908Z,100884.00
2022-12-04T17:18:55.469Z,100886.00
2022-12-04T17:21:22.034Z,100886.00
2022-12-04T17:23:48.654Z,100886.00
2022-12-04T17:26:15.602Z,100899.00
2022-12-04T17:28:42.164Z,100880.00
2022-12-04T17:31:14.651Z,100900.00
2022-12-04T17:33:42.099Z,100900.00
2022-12-04T17:36:14.262Z,100890.00
2022-12-04T17:38:41.183Z,100891.00
2022-12-04T17:41:09.063Z,100895.00
2022-12-04T17:43:36.096Z,100888.00
2022-12-04T17:46:08.745Z,100879.00
2022-12-04T17:48:35.386Z,100873.00
2022-12-04T17:51:22.665Z,100881.00
2022-12-04T17:53:49.814Z,100893.00
2022-12-04T17:56:19.848Z,100887.00
2022-12-04T17:58:47.467Z,100877.00
2022-12-04T18:01:17.534Z,100884.00
2022-12-04T18:03:46.077Z,100874.00
2022-12-04T18:06:23.077Z,100875.00
2022-12-04T18:08:50.661Z,100874.00
2022-12-04T18:11:23.120Z,100879.00
2022-12-04T18:13:55.068Z,100878.00
2022-12-04T18:16:22.105Z,100875.00
2022-12-04T18:18:57.035Z,100878.00
2022-12-04T18:21:24.035Z,100870.00
2022-12-04T18:23:50.667Z,100866.00
2022-12-04T18:26:21.905Z,100879.00
2022-12-04T18:28:49.711Z,100888.00
2022-12-04T18:31:18.105Z,100882.00
2022-12-04T18:33:45.267Z,100888.00
2022-12-04T18:36:24.117Z,100876.00
2022-12-04T18:38:56.873Z,100876.00
2022-12-04T18:41:23.982Z,100867.00
2022-12-04T18:43:51.132Z,100874.00
2022-12-04T18:46:18.231Z,100879.00
2022-12-04T18:49:10.442Z,100873.00
2022-12-04T18:51:45.814Z,100875.00
2022-12-04T18:54:18.389Z,100874.00
2022-12-04T18:56:45.105Z,100856.00
2022-12-04T18:59:15.124Z,100867.00
2022-12-04T19:01:42.379Z,100883.00
2022-12-04T19:04:10.589Z,100870.00
2022-12-04T19:06:39.408Z,100877.00
2022-12-04T19:09:10.964Z,100877.00
2022-12-04T19:11:39.030Z,100858.00
2022-12-04T19:14:14.793Z,100885.00
2022-12-04T19:16:45.022Z,100880.00
2022-12-04T19:19:12.801Z,100885.00
2022-12-04T19:21:39.621Z,100880.00
2022-12-04T19:24:06.656Z,100878.00
2022-12-04T19:26:34.012Z,100881.00
2022-12-04T19:29:02.292Z,100889.00
2022-12-04T19:31:32.842Z,100876.00
2022-12-04T19:33:59.757Z,100894.00
2022-12-04T19:36:28.297Z,100886.00
2022-12-04T19:38:56.777Z,100893.00
2022-12-04T19:41:25.811Z,100887.00
2022-12-04T19:43:55.704Z,100885.00
2022-12-04T19:46:23.213Z,100898.00
2022-12-04T19:48:50.342Z,100888.00
2022-12-04T19:51:21.302Z,100886.00
2022-12-04T19:53:48.672Z,100884.00
2022-12-04T19:56:17.663Z,100888.00
2022-12-04T19:58:44.814Z,100883.00
2022-12-04T20:01:14.983Z,100884.00
2022-12-04T20:03:42.010Z,100884.00
2022-12-04T20:06:14.584Z,100883.00
2022-12-04T20:08:41.991Z,100876.00
2022-12-04T20:11:11.724Z,100883.00
2022-12-04T20:13:39.522Z,100871.00
2022-12-04T20:16:08.322Z,100874.00
2022-12-04T20:18:36.737Z,100863.00
2022-12-04T20:21:04.157Z,100866.00
2022-12-04T20:23:30.864Z,100867.00
2022-12-04T20:26:03.882Z,100856.00
2022-12-04T20:28:30.417Z,100858.00
2022-12-04T20:30:57.539Z,100847.00
2022-12-04T20:33:24.513Z,100833.00
2022-12-04T20:35:51.177Z,100848.00
2022-12-04T20:38:17.998Z,100846.00
2022-12-04T20:40:44.702Z,100863.00
2022-12-04T20:43:11.300Z,100847.00
2022-12-04T20:45:37.890Z,100859.00
2022-12-04T20:48:04.714Z,100846.00
2022-12-04T20:50:31.241Z,100855.00
2022-12-04T20:52:57.769Z,100829.00
2022-12-04T20:55:24.378Z,100857.00
2022-12-04T20:57:51.053Z,100831.00
2022-12-04T21:00:17.901Z,100868.00
2022-12-04T21:02:44.607Z,100858.00
2022-12-04T21:05:11.277Z,100860.00
2022-12-04T21:07:37.867Z,100859.00
2022-12-04T21:10:06.525Z,100859.00
2022-12-04T21:12:51.919Z,100861.00
2022-12-04T21:15:37.332Z,100870.00
2022-12-04T21:18:04.249Z,100856.00
2022-12-04T21:20:30.895Z,100853.00
2022-12-04T21:22:57.438Z,100856.00
2022-12-04T21:25:25.260Z,100848.00
2022-12-04T21:27:52.187Z,100850.00
2022-12-04T21:30:19.349Z,100844.00
2022-12-04T21:32:45.998Z,100844.00
2022-12-04T21:35:12.595Z,100848.00
2022-12-04T21:37:39.082Z,100855.00
2022-12-04T21:40:06.485Z,100845.00
2022-12-04T21:42:34.437Z,100839.00
2022-12-04T21:45:02.539Z,100847.00
2022-12-04T21:47:30.101Z,100838.00
2022-12-04T21:49:57.078Z,100833.00
2022-12-04T21:52:24.472Z,100839.00
2022-12-04T21:54:52.248Z,100843.00
2022-12-04T21:57:19.177Z,100832.00
2022-12-04T21:59:45.789Z,100835.00
2022-12-04T22:02:13.431Z,100833.00
2022-12-04T22:04:40.835Z,100831.00
2022-12-04T22:07:07.536Z,100823.00
2022-12-04T22:09:34.334Z,100830.00
2022-12-04T22:12:04.191Z,100830.00
2022-12-04T22:14:41.435Z,100834.00
2022-12-04T22:17:07.998Z,100831.00
2022-12-04T22:19:35.847Z,100834.00
2022-12-04T22:22:02.350Z,100828.00
2022-12-04T22:24:29.048Z,100823.00
2022-12-04T22:26:55.562Z,100832.00
2022-12-04T22:32:08.653Z,100821.00
2022-12-04T22:34:35.435Z,100817.00
2022-12-04T22:37:01.954Z,100828.00
2022-12-04T22:39:28.534Z,100827.00
2022-12-04T22:41:55.119Z,100809.00
2022-12-04T22:44:21.847Z,100818.00
2022-12-04T22:46:48.485Z,100799.00
2022-12-04T22:49:15.152Z,100813.00
2022-12-04T22:51:41.710Z,100815.00
2022-12-04T22:54:12.910Z,100807.00
2022-12-04T22:56:39.853Z,100805.00
2022-12-04T22:59:06.409Z,100811.00
2022-12-04T23:01:34.034Z,100797.00
2022-12-04T23:04:02.940Z,100801.00
2022-12-04T23:06:31.060Z,100793.00
2022-12-04T23:09:00.558Z,100793.00
2022-12-04T23:11:27.649Z,100789.00
2022-12-04T23:14:00.207Z,100798.00
2022-12-04T23:16:28.459Z,100778.00
2022-12-04T23:18:56.122Z,100794.00
2022-12-04T23:21:23.747Z,100795.00
2022-12-04T23:23:52.125Z,100794.00
2022-12-04T23:26:24.711Z,100787.00
2022-12-04T23:28:51.337Z,100782.00
2022-12-04T23:31:18.528Z,100792.00
2022-12-04T23:33:45.296Z,100790.00
2022-12-04T23:36:12.912Z,100796.00
2022-12-04T23:38:40.898Z,100780.00
2022-12-04T23:41:13.341Z,100784.00
2022-12-04T23:43:40.711Z,100784.00
2022-12-04T23:46:11.193Z,100786.00
2022-12-04T23:48:40.078Z,100794.00
2022-12-04T23:51:07.730Z,100796.00
2022-12-04T23:53:34.408Z,100789.00
2022-12-04T23:56:06.341Z,100777.00
2022-12-04T23:58:33.690Z,100781.00
